Time;durP1;ratioP1;P1;durP2;ratioP2;P2;SDS_P1;SDS_P2;PMS_P1;PMS_P2;Temp;Humidity;BMP_temperature;BMP_pressure;BME280_temperature;BME280_humidity;BME280_pressure;Samples;Min_cycle;Max_cycle;Signal;HPM_P1;HPM_P2
2021/04/15 00:00:40;;;;;;;2.07;1.80;;;;;;;0.79;79.86;95719.94;1754521;81;21678;-70
2021/04/15 00:03:15;;;;;;;2.00;1.10;;;;;;;0.82;79.76;95717.40;1754345;81;21086;-70
2021/04/15 00:05:44;;;;;;;;;;;;;;;0.82;80.29;95716.97;1756676;82;21560;-70
2021/04/15 00:08:13;;;;;;;1.53;1.43;;;;;;;0.78;79.95;95723.36;1754533;82;20490;-70
2021/04/15 00:10:49;;;;;;;1.43;1.30;;;;;;;0.75;80.38;95722.88;1754188;81;21590;-71
2021/04/15 00:13:27;;;;;;;1.67;1.27;;;;;;;0.79;80.41;95719.51;1754171;82;21145;-70
2021/04/15 00:15:56;;;;;;;2.03;1.10;;;;;;;0.75;80.35;95717.68;1754512;82;21591;-70
2021/04/15 00:18:25;;;;;;;2.27;1.70;;;;;;;0.70;80.02;95732.28;1754150;82;21145;-70
2021/04/15 00:20:54;;;;;;;1.20;0.80;;;;;;;0.67;80.12;95732.23;1754395;82;21145;-70
2021/04/15 00:23:22;;;;;;;1.63;1.00;;;;;;;0.68;80.27;95718.81;1754261;82;21579;-70
2021/04/15 00:25:51;;;;;;;1.50;1.23;;;;;;;0.64;80.22;95723.08;1754066;82;21156;-70
2021/04/15 00:28:19;;;;;;;1.53;1.20;;;;;;;0.59;80.65;95725.58;1754420;81;21133;-70
2021/04/15 00:30:49;;;;;;;1.73;1.50;;;;;;;0.63;80.83;95731.30;1754405;82;21599;-70
2021/04/15 00:33:19;;;;;;;2.20;1.70;;;;;;;0.68;81.38;95727.91;1752500;81;21128;-70
2021/04/15 00:35:47;;;;;;;1.77;1.57;;;;;;;0.70;81.29;95732.28;1740280;82;21703;-70
2021/04/15 00:38:17;;;;;;;1.77;1.17;;;;;;;0.73;81.27;95720.69;1740268;82;21300;-70
2021/04/15 00:40:48;;;;;;;2.63;2.00;;;;;;;0.71;81.18;95726.70;1740083;82;21284;-71
2021/04/15 00:43:17;;;;;;;1.17;0.93;;;;;;;0.68;80.62;95722.31;1740368;82;21588;-70
2021/04/15 00:45:46;;;;;;;3.27;2.57;;;;;;;0.73;80.61;95718.09;1740164;82;21174;-70
2021/04/15 00:48:41;;;;;;;4.13;2.87;;;;;;;0.70;80.65;95721.91;1740110;82;21292;-70
2021/04/15 00:51:31;;;;;;;2.47;1.83;;;;;;;0.72;80.82;95721.52;1740281;82;21272;-70
2021/04/15 00:54:06;;;;;;;4.57;2.80;;;;;;;0.71;79.87;95721.08;1740198;82;21580;-70
2021/04/15 00:56:35;;;;;;;4.40;2.90;;;;;;;0.67;80.11;95711.88;1740124;82;21683;-70
2021/04/15 00:59:05;;;;;;;3.30;2.70;;;;;;;0.67;80.03;95717.08;1740339;82;21270;-70
2021/04/15 01:01:34;;;;;;;2.70;1.87;;;;;;;0.66;79.93;95717.94;1740038;82;21252;-70
2021/04/15 01:04:02;;;;;;;2.67;2.20;;;;;;;0.70;79.72;95719.30;1740134;82;21272;-70
2021/04/15 01:06:30;;;;;;;2.40;1.93;;;;;;;0.70;79.95;95725.80;1740426;82;21114;-70
2021/04/15 01:08:59;;;;;;;4.67;2.97;;;;;;;0.72;79.96;95722.81;1740079;82;21280;-70
2021/04/15 01:11:57;;;;;;;2.80;1.80;;;;;;;0.77;80.10;95722.92;1739702;82;21611;-70
2021/04/15 01:14:49;;;;;;;2.77;2.33;;;;;;;0.78;79.82;95725.56;1740115;82;21272;-70
2021/04/15 01:17:28;;;;;;;3.13;2.30;;;;;;;0.88;79.85;95723.13;1740188;82;21257;-70
2021/04/15 01:20:33;;;;;;;2.97;2.13;;;;;;;0.92;79.65;95724.53;1740171;82;21271;-70
2021/04/15 01:23:14;;;;;;;1.77;1.50;;;;;;;0.92;79.49;95715.44;1724424;82;21154;-70
2021/04/15 01:26:08;;;;;;;0.77;0.77;;;;;;;0.82;79.05;95726.06;1740154;82;21302;-70
2021/04/15 01:28:52;;;;;;;2.30;2.05;;;;;;;0.78;78.88;95729.45;1738296;82;21807;-70
2021/04/15 01:31:31;;;;;;;3.23;2.20;;;;;;;0.74;79.39;95734.12;1735367;82;21149;-70
2021/04/15 01:34:04;;;;;;;2.33;1.00;;;;;;;0.75;79.75;95722.88;1742627;81;21311;-70
2021/04/15 01:36:37;;;;;;;1.42;0.90;;;;;;;0.78;79.31;95725.56;1754261;82;21090;-70
2021/04/15 01:39:15;;;;;;;1.50;1.00;;;;;;;0.71;79.23;95714.58;1754346;82;21090;-70
2021/04/15 01:41:54;;;;;;;1.43;1.23;;;;;;;0.66;79.50;95721.83;1754350;82;21098;-70
2021/04/15 01:44:33;;;;;;;2.57;1.70;;;;;;;0.53;79.60;95721.56;1753600;82;21101;-70
2021/04/15 01:47:06;;;;;;;1.67;1.30;;;;;;;0.55;79.43;95726.77;1754337;81;21156;-70
2021/04/15 01:49:38;;;;;;;2.90;1.40;;;;;;;0.57;79.60;95726.38;1754508;82;21125;-70
2021/04/15 01:52:10;;;;;;;1.40;0.80;;;;;;;0.60;79.76;95727.31;1754319;81;21638;-70
2021/04/15 01:54:55;;;;;;;1.10;1.00;;;;;;;0.62;79.54;95724.77;1754336;82;21130;-70
2021/04/15 01:57:46;;;;;;;1.97;1.43;;;;;;;0.47;79.52;95727.02;1754076;82;21549;-70
2021/04/15 02:00:21;;;;;;;2.27;0.93;;;;;;;0.49;79.82;95726.64;1754514;81;21275;-70
2021/04/15 02:03:00;;;;;;;0.73;0.63;;;;;;;0.48;79.96;95732.66;1754473;81;21125;-70
2021/04/15 02:05:33;;;;;;;1.50;0.77;;;;;;;0.43;79.59;95732.16;1754093;82;21118;-70
2021/04/15 02:08:09;;;;;;;2.40;1.55;;;;;;;0.39;79.40;95729.02;1754572;82;21133;-70
2021/04/15 02:10:47;;;;;;;1.90;1.33;;;;;;;0.34;79.69;95733.66;1754152;82;21572;-70
2021/04/15 02:13:17;;;;;;;2.70;1.70;;;;;;;0.35;80.15;95736.30;1754029;81;21165;-70
2021/04/15 02:15:50;;;;;;;1.43;1.10;;;;;;;0.36;80.52;95734.16;1754266;82;21576;-70
2021/04/15 02:18:25;;;;;;;2.08;1.70;;;;;;;0.40;80.89;95733.39;1754209;82;21125;-70
2021/04/15 02:20:58;;;;;;;2.73;1.80;;;;;;;0.50;80.55;95734.88;1754330;82;21539;-70
2021/04/15 02:23:36;;;;;;;1.90;1.40;;;;;;;0.51;80.44;95735.35;1726891;82;21638;-70
2021/04/15 02:26:11;;;;;;;0.73;0.73;;;;;;;0.42;80.69;95732.98;1754117;82;21130;-70
2021/04/15 02:28:53;;;;;;;2.03;1.80;;;;;;;0.44;79.90;95735.63;1754155;82;21544;-70
2021/04/15 02:31:29;;;;;;;1.70;1.60;;;;;;;0.47;79.76;95736.11;1726772;82;21619;-70
2021/04/15 02:34:05;;;;;;;1.60;1.13;;;;;;;0.56;80.20;95737.20;1754120;81;21571;-70
2021/04/15 02:36:50;;;;;;;1.43;1.23;;;;;;;0.51;79.44;95739.25;1754178;81;21588;-70
2021/04/15 02:39:34;;;;;;;1.80;0.90;;;;;;;0.44;79.59;95742.11;1754260;81;21532;-70
2021/04/15 02:42:05;;;;;;;;;;;;;;;0.49;79.90;95736.60;1756512;82;21130;-70
2021/04/15 02:44:48;;;;;;;0.70;0.63;;;;;;;0.52;79.75;95748.77;1754443;82;20153;-70
2021/04/15 02:47:21;;;;;;;1.85;1.57;;;;;;;0.48;79.63;95745.24;1754375;82;21552;-70
2021/04/15 02:49:52;;;;;;;2.58;2.00;;;;;;;0.47;79.44;95740.00;1754253;82;21150;-70
2021/04/15 02:52:24;;;;;;;1.70;1.30;;;;;;;0.46;80.12;95744.33;1754012;82;21164;-71
2021/04/15 02:54:56;;;;;;;1.23;1.00;;;;;;;0.48;79.59;95738.75;1754466;81;21114;-70
2021/04/15 02:58:02;;;;;;;1.23;1.13;;;;;;;0.45;79.78;95745.58;1753968;81;21125;-70
2021/04/15 03:00:36;;;;;;;1.37;1.00;;;;;;;0.44;79.51;95740.81;1753571;82;21144;-71
2021/04/15 03:03:11;;;;;;;1.93;1.23;;;;;;;0.48;79.40;95752.12;1726888;82;21125;-70
2021/04/15 03:05:50;;;;;;;1.30;1.10;;;;;;;0.42;79.16;95757.64;1754299;82;21137;-70
2021/04/15 03:08:23;;;;;;;1.60;1.47;;;;;;;0.37;79.11;95744.11;1754036;81;21109;-70
2021/04/15 03:10:59;;;;;;;2.42;1.75;;;;;;;0.37;79.31;95742.81;1754506;82;21528;-70
2021/04/15 03:13:38;;;;;;;0.60;0.60;;;;;;;0.36;79.85;95744.96;1753995;82;21591;-70
2021/04/15 03:16:06;;;;;;;1.47;0.80;;;;;;;0.38;79.71;95743.28;1754497;82;21109;-70
2021/04/15 03:18:54;;;;;;;2.20;1.63;;;;;;;0.35;79.66;95743.19;1754455;82;21148;-70
2021/04/15 03:21:29;;;;;;;1.50;1.37;;;;;;;0.29;79.64;95738.74;1754007;82;21579;-70
2021/04/15 03:24:11;;;;;;;0.60;0.57;;;;;;;0.30;80.29;95742.20;1754262;81;21140;-70
2021/04/15 03:26:54;;;;;;;1.17;0.87;;;;;;;0.29;80.11;95735.27;1754085;81;21118;-70
2021/04/15 03:29:31;;;;;;;1.60;0.80;;;;;;;0.26;80.14;95743.87;1754042;82;21134;-70
2021/04/15 03:32:07;;;;;;;1.17;0.83;;;;;;;0.24;80.71;95748.14;1740308;82;21592;-70
2021/04/15 03:34:52;;;;;;;1.53;1.20;;;;;;;0.22;80.35;95748.52;1753954;81;21159;-70
2021/04/15 03:37:34;;;;;;;1.50;1.20;;;;;;;0.20;80.59;95747.59;1753977;82;21133;-70
2021/04/15 03:40:04;;;;;;;0.97;0.63;;;;;;;0.25;80.90;95748.58;1753838;81;21148;-70
2021/04/15 03:42:49;;;;;;;1.50;0.70;;;;;;;0.31;80.27;95746.58;1726701;82;21142;-70
2021/04/15 03:45:22;;;;;;;1.17;0.70;;;;;;;0.31;80.02;95756.95;1754051;82;21133;-70
2021/04/15 03:47:58;;;;;;;3.03;0.90;;;;;;;0.31;80.07;95750.47;1754275;81;21129;-70
2021/04/15 03:50:51;;;;;;;1.50;1.10;;;;;;;0.35;80.10;95751.88;1753980;81;21137;-70
2021/04/15 03:53:27;;;;;;;2.47;1.30;;;;;;;0.42;80.05;95749.85;1754304;82;21133;-70
2021/04/15 03:56:04;;;;;;;2.33;1.50;;;;;;;0.46;80.33;95749.52;1754075;81;21138;-70
2021/04/15 03:58:45;;;;;;;2.77;1.77;;;;;;;0.50;80.55;95754.34;1753927;82;21583;-70
2021/04/15 04:01:19;;;;;;;1.45;1.27;;;;;;;0.54;81.05;95762.24;1754012;82;21130;-70
2021/04/15 04:03:57;;;;;;;1.53;1.20;;;;;;;0.55;81.24;95758.79;1754279;82;21157;-70
2021/04/15 04:06:27;;;;;;;2.43;1.77;;;;;;;0.60;80.93;95763.66;1713934;82;21446;-70
2021/04/15 04:09:03;;;;;;;2.57;1.63;;;;;;;0.57;81.11;95766.20;1754238;82;21166;-70
2021/04/15 04:11:34;;;;;;;4.27;2.80;;;;;;;0.57;81.54;95767.92;1753938;81;21138;-70
2021/04/15 04:14:18;;;;;;;5.03;3.17;;;;;;;0.54;81.91;95773.92;1753991;81;21133;-70
2021/04/15 04:17:10;;;;;;;5.50;3.40;;;;;;;0.52;82.75;95772.14;1753694;82;21154;-70
2021/04/15 04:19:48;;;;;;;3.00;2.30;;;;;;;0.50;83.42;95776.41;1753327;82;21106;-70
2021/04/15 04:22:52;;;;;;;3.63;2.40;;;;;;;0.52;83.00;95776.91;1753883;82;21121;-70
2021/04/15 04:25:34;;;;;;;4.03;2.20;;;;;;;0.57;82.79;95776.59;1726973;82;21572;-70
2021/04/15 04:28:25;;;;;;;3.07;1.97;;;;;;;0.64;82.76;95781.50;1754068;81;21568;-70
2021/04/15 04:31:00;;;;;;;2.60;2.10;;;;;;;0.65;82.19;95781.95;1753962;82;21150;-70
2021/04/15 04:33:42;;;;;;;4.00;2.30;;;;;;;0.71;82.52;95783.83;1726871;82;21138;-70
2021/04/15 04:36:13;;;;;;;4.23;2.23;;;;;;;0.83;82.10;95781.48;1742374;81;21181;-70
2021/04/15 04:38:42;;;;;;;4.20;2.93;;;;;;;0.90;81.83;95782.50;1740376;82;21268;-70
2021/04/15 04:41:15;;;;;;;4.10;2.67;;;;;;;0.93;82.01;95782.12;1740189;81;21147;-70
2021/04/15 04:43:46;;;;;;;4.17;2.92;;;;;;;0.94;81.83;95780.00;1740133;82;21264;-70
2021/04/15 04:46:35;;;;;;;4.47;3.13;;;;;;;0.98;82.02;95779.23;1740134;82;21288;-70
2021/04/15 04:49:23;;;;;;;4.77;3.37;;;;;;;1.01;82.58;95777.13;1740274;81;21691;-70
2021/04/15 04:52:12;;;;;;;4.03;2.70;;;;;;;1.03;82.82;95781.51;1740052;81;21288;-70
2021/04/15 04:54:40;;;;;;;3.83;2.30;;;;;;;1.08;82.29;95780.28;1739718;82;21133;-70
2021/04/15 04:57:26;;;;;;;4.73;2.70;;;;;;;1.08;82.33;95781.19;1740417;82;21146;-70
2021/04/15 05:00:01;;;;;;;11.30;4.50;;;;;;;1.13;82.10;95776.05;1740110;82;21264;-70
2021/04/15 05:02:29;;;;;;;9.93;4.43;;;;;;;1.23;82.12;95783.19;1740176;82;21268;-70
2021/04/15 05:05:14;;;;;;;10.93;6.03;;;;;;;1.21;81.86;95786.20;1740748;82;21583;-70
2021/04/15 05:07:44;;;;;;;7.83;3.67;;;;;;;1.24;81.70;95778.89;1740220;82;21275;-70
2021/04/15 05:10:22;;;;;;;10.30;4.77;;;;;;;1.18;82.07;95779.62;1740364;82;21146;-70
2021/04/15 05:12:54;;;;;;;6.30;4.27;;;;;;;1.21;82.25;95774.91;1739925;82;21735;-70
2021/04/15 05:15:22;;;;;;;5.77;3.17;;;;;;;1.22;82.43;95784.05;1738763;82;21260;-70
2021/04/15 05:17:51;;;;;;;8.27;4.77;;;;;;;1.16;82.44;95778.73;1740425;82;21141;-70
2021/04/15 05:20:21;;;;;;;9.63;6.20;;;;;;;1.19;81.90;95778.80;1740269;82;21579;-70
2021/04/15 05:22:56;;;;;;;10.23;6.20;;;;;;;1.23;82.06;95777.98;1740212;82;21722;-70
2021/04/15 05:25:48;;;;;;;6.73;4.00;;;;;;;1.34;81.89;95776.93;1739424;82;21288;-68
2021/04/15 05:28:17;;;;;;;7.53;5.00;;;;;;;1.29;81.90;95779.86;1729476;82;21296;-70
2021/04/15 05:30:49;;;;;;;7.87;4.00;;;;;;;1.33;81.86;95783.38;1740616;82;21130;-70
2021/04/15 05:33:22;;;;;;;8.07;5.50;;;;;;;1.34;81.37;95779.53;1740116;82;21306;-71
2021/04/15 05:36:14;;;;;;;9.13;5.47;;;;;;;1.33;80.84;95780.36;1739985;82;21268;-68
2021/04/15 05:38:48;;;;;;;8.93;5.07;;;;;;;1.39;80.82;95784.83;1740346;82;21121;-70
2021/04/15 05:41:29;;;;;;;8.18;5.70;;;;;;;1.45;81.23;95785.80;1739749;82;21279;-70
2021/04/15 05:44:07;;;;;;;8.60;5.83;;;;;;;1.48;80.50;95781.08;1740223;82;21280;-70
2021/04/15 05:46:44;;;;;;;7.93;5.07;;;;;;;1.57;80.83;95781.27;1740137;82;21253;-70
2021/04/15 05:49:22;;;;;;;5.83;4.07;;;;;;;1.63;80.98;95778.77;1740276;82;21126;-70
2021/04/15 05:52:06;;;;;;;6.10;3.63;;;;;;;1.65;81.11;95780.98;1740724;82;21549;-70
2021/04/15 05:54:36;;;;;;;7.13;4.80;;;;;;;1.74;80.61;95776.39;1740231;82;21553;-70
2021/04/15 05:57:17;;;;;;;8.90;4.97;;;;;;;1.86;80.62;95777.02;1739966;82;21291;-68
2021/04/15 05:59:53;;;;;;;5.73;3.47;;;;;;;1.98;80.07;95781.57;1740212;82;21137;-68
2021/04/15 06:02:47;;;;;;;3.33;2.47;;;;;;;1.95;78.25;95781.96;1740115;82;21134;-68
2021/04/15 06:05:44;;;;;;;4.07;3.07;;;;;;;1.94;77.87;95780.62;1740107;82;21134;-70
2021/04/15 06:08:12;;;;;;;4.83;3.40;;;;;;;1.97;78.42;95785.03;1739426;81;21706;-70
2021/04/15 06:10:40;;;;;;;4.73;2.60;;;;;;;2.04;78.11;95781.66;1740027;82;21323;-70
2021/04/15 06:13:34;;;;;;;3.53;2.40;;;;;;;2.05;77.71;95776.92;1740156;82;21153;-68
2021/04/15 06:16:06;;;;;;;2.67;2.10;;;;;;;1.91;76.98;95781.44;1732539;82;21140;-70
2021/04/15 06:18:49;;;;;;;3.80;2.23;;;;;;;1.92;76.61;95787.12;1740518;82;21118;-70
2021/04/15 06:21:22;;;;;;;3.00;2.20;;;;;;;1.98;77.42;95788.08;1740419;82;21281;-68
2021/04/15 06:24:00;;;;;;;4.03;2.37;;;;;;;2.04;76.90;95786.47;1739985;82;21260;-68
2021/04/15 06:26:35;;;;;;;5.53;4.20;;;;;;;2.12;77.12;95775.75;1740108;82;21280;-68
2021/04/15 06:29:28;;;;;;;7.23;3.87;;;;;;;2.19;77.14;95776.71;1740019;81;21284;-68
2021/04/15 06:31:57;;;;;;;5.12;3.50;;;;;;;2.22;76.83;95781.09;1740428;82;21170;-70
2021/04/15 06:34:27;;;;;;;4.63;3.60;;;;;;;2.23;77.05;95779.83;1740207;82;21276;-70
2021/04/15 06:37:42;;;;;;;3.90;3.00;;;;;;;2.29;77.16;95776.05;1751747;81;21152;-71
2021/04/15 06:40:37;;;;;;;4.07;2.47;;;;;;;2.40;76.85;95780.11;1754267;81;21129;-70
2021/04/15 06:43:16;;;;;;;3.57;2.80;;;;;;;2.42;76.39;95782.31;1754410;81;21133;-70
2021/04/15 06:46:06;;;;;;;6.93;4.23;;;;;;;2.46;75.77;95784.53;1751415;82;21153;-69
2021/04/15 06:49:22;;;;;;;4.03;1.90;;;;;;;2.55;76.02;95788.59;1754403;82;21121;-70
2021/04/15 06:52:28;;;;;;;3.50;2.33;;;;;;;2.50;74.92;95795.45;1754111;81;21161;-70
2021/04/15 06:55:16;;;;;;;1.53;1.23;;;;;;;2.35;75.81;95792.18;1652882;85;21173;-68
2021/04/15 06:57:58;;;;;;;3.30;2.00;;;;;;;2.32;75.41;95792.14;1687709;82;21153;-71
2021/04/15 07:00:46;;;;;;;3.77;2.17;;;;;;;2.35;75.56;95799.56;1753915;82;21141;-68
2021/04/15 07:03:51;;;;;;;3.87;2.83;;;;;;;2.40;75.04;95795.73;1752858;82;21106;-68
2021/04/15 07:06:45;;;;;;;;;;;;;;;2.37;75.54;95799.16;1756631;82;21157;-70
2021/04/15 07:09:42;;;;;;;5.20;4.12;;;;;;;2.44;76.40;95798.81;1737722;82;20154;-70
2021/04/15 07:12:55;;;;;;;3.63;2.50;;;;;;;2.55;77.02;95802.92;1753860;82;21149;-71
2021/04/15 07:15:43;;;;;;;5.20;3.90;;;;;;;2.53;74.52;95800.28;1754172;81;21137;-70
2021/04/15 07:18:36;;;;;;;3.60;2.23;;;;;;;2.68;76.96;95797.47;1754268;82;21169;-68
2021/04/15 07:21:45;;;;;;;4.95;3.75;;;;;;;2.73;75.45;95808.40;1754443;82;21144;-68
2021/04/15 07:24:34;;;;;;;4.13;3.07;;;;;;;2.89;75.68;95806.02;1753220;82;21129;-68
2021/04/15 07:27:18;;;;;;;4.17;3.03;;;;;;;2.90;74.80;95812.56;1751428;82;21576;-69
2021/04/15 07:30:10;;;;;;;3.70;1.97;;;;;;;2.96;74.84;95813.94;1753737;82;21583;-68
2021/04/15 07:32:58;;;;;;;1.70;1.53;;;;;;;2.92;73.07;95817.34;1754072;81;21153;-70
2021/04/15 07:35:40;;;;;;;1.70;1.40;;;;;;;2.85;72.77;95822.45;1753944;81;21139;-69
2021/04/15 07:38:36;;;;;;;1.43;1.30;;;;;;;2.86;72.80;95820.31;1754282;82;21098;-68
2021/04/15 07:41:22;;;;;;;1.47;1.07;;;;;;;2.73;72.57;95823.16;1753953;82;21125;-70
2021/04/15 07:44:29;;;;;;;1.37;0.93;;;;;;;2.64;72.33;95830.39;1754182;82;21134;-71
2021/04/15 07:47:46;;;;;;;2.27;1.60;;;;;;;2.59;72.34;95833.34;1754096;82;21161;-70
2021/04/15 07:50:56;;;;;;;3.40;1.90;;;;;;;2.57;72.39;95837.25;1754275;82;21129;-70
2021/04/15 07:53:58;;;;;;;0.83;0.80;;;;;;;2.51;72.02;95839.73;1754039;81;21160;-70
2021/04/15 07:56:50;;;;;;;2.17;1.67;;;;;;;2.51;72.63;95842.34;1726708;82;21138;-70
2021/04/15 07:59:35;;;;;;;1.83;1.50;;;;;;;2.53;72.72;95838.05;1754001;81;21150;-70
2021/04/15 08:02:29;;;;;;;2.50;1.40;;;;;;;2.51;73.33;95838.87;1753265;82;21129;-70
2021/04/15 08:05:30;;;;;;;12.40;6.43;;;;;;;2.58;73.14;95835.52;1754282;82;21556;-70
2021/04/15 08:08:24;;;;;;;4.30;2.43;;;;;;;2.66;72.50;95840.84;1754060;82;21539;-70
2021/04/15 08:11:09;;;;;;;4.27;3.80;;;;;;;2.52;72.15;95836.30;1754249;82;21130;-70
2021/04/15 08:13:59;;;;;;;2.27;1.97;;;;;;;2.62;72.66;95842.55;1754119;82;21113;-70
2021/04/15 08:17:08;;;;;;;1.80;1.50;;;;;;;2.62;72.97;95833.42;1754131;81;21145;-70
2021/04/15 08:19:54;;;;;;;4.67;3.13;;;;;;;2.69;72.22;95836.55;1754205;81;21137;-70
2021/04/15 08:22:58;;;;;;;7.37;6.10;;;;;;;2.78;72.26;95844.52;1754221;82;21553;-70
2021/04/15 08:25:54;;;;;;;2.47;1.67;;;;;;;2.80;72.31;95840.64;1754272;81;21136;-70
2021/04/15 08:28:56;;;;;;;1.90;1.53;;;;;;;2.73;71.95;95843.58;1754385;81;21144;-68
2021/04/15 08:32:10;;;;;;;2.37;2.10;;;;;;;2.90;72.38;95837.33;1754320;81;21124;-70
2021/04/15 08:35:03;;;;;;;2.67;1.50;;;;;;;3.14;72.73;95838.52;1754336;81;21129;-70
2021/04/15 08:37:48;;;;;;;2.23;1.40;;;;;;;3.27;71.51;95840.44;1712296;82;21160;-69
2021/04/15 08:40:36;;;;;;;1.70;1.40;;;;;;;3.43;71.93;95838.48;1750432;82;21125;-68
2021/04/15 08:43:43;;;;;;;2.03;1.53;;;;;;;3.60;70.47;95842.62;1750561;82;21129;-68
2021/04/15 08:46:18;;;;;;;2.07;1.13;;;;;;;3.53;70.19;95839.48;1750672;82;21139;-68
2021/04/15 08:49:18;;;;;;;3.23;1.60;;;;;;;3.48;70.46;95839.86;1750829;82;21627;-69
2021/04/15 08:52:05;;;;;;;2.43;1.67;;;;;;;3.41;69.41;95845.41;1750223;82;21185;-68
2021/04/15 08:55:03;;;;;;;2.30;1.50;;;;;;;3.19;69.89;95841.63;1750854;82;21126;-68
2021/04/15 08:57:52;;;;;;;2.33;1.80;;;;;;;3.15;70.87;95845.08;1750640;82;21141;-69
2021/04/15 09:00:51;;;;;;;4.73;3.43;;;;;;;3.42;69.98;95834.55;1848968;76;22189;-68
2021/04/15 09:03:56;;;;;;;5.00;2.87;;;;;;;3.46;70.41;95835.91;1860346;77;21642;-68
2021/04/15 09:06:29;;;;;;;4.70;2.80;;;;;;;3.59;70.04;95834.77;1760358;80;21121;-70
2021/04/15 09:09:26;;;;;;;2.72;2.05;;;;;;;3.61;69.90;95839.14;1794580;80;21128;-70
2021/04/15 09:12:17;;;;;;;2.00;1.77;;;;;;;3.66;69.29;95835.30;1790644;80;21266;-70
2021/04/15 09:15:14;;;;;;;2.90;2.20;;;;;;;3.64;68.84;95842.22;1793965;80;21590;-68
2021/04/15 09:18:20;;;;;;;3.30;1.77;;;;;;;3.57;68.10;95842.56;1791253;80;21150;-70
2021/04/15 09:21:14;;;;;;;4.10;3.20;;;;;;;3.70;68.59;95843.58;1823035;78;21129;-70
2021/04/15 09:24:00;;;;;;;6.43;3.93;;;;;;;3.77;68.28;95841.50;1760309;79;21137;-70
2021/04/15 09:26:45;;;;;;;6.27;3.80;;;;;;;3.89;70.50;95836.86;1790656;80;21301;-71
2021/04/15 09:29:38;;;;;;;3.60;2.53;;;;;;;4.07;69.21;95840.95;1794387;80;21127;-69
2021/04/15 09:32:12;;;;;;;2.90;2.25;;;;;;;4.08;69.24;95837.51;1746166;80;21155;-68
2021/04/15 09:35:11;;;;;;;3.50;2.72;;;;;;;4.07;67.24;95838.34;1794372;80;21129;-68
2021/04/15 09:38:21;;;;;;;4.70;3.80;;;;;;;4.12;69.62;95841.02;1790796;80;21621;-69
2021/04/15 09:41:27;;;;;;;4.20;3.30;;;;;;;4.27;69.47;95839.86;1794266;80;21152;-69
2021/04/15 09:44:20;;;;;;;3.80;3.10;;;;;;;4.24;67.77;95836.35;1790239;80;21127;-70
2021/04/15 09:47:02;;;;;;;18.77;12.27;;;;;;;4.45;68.32;95841.76;1794303;80;21097;-68
2021/04/15 09:49:55;;;;;;;3.00;2.33;;;;;;;4.64;68.74;95832.80;1823035;79;21132;-68
2021/04/15 09:52:57;;;;;;;2.40;1.95;;;;;;;4.84;66.68;95832.52;1823386;79;21127;-68
2021/04/15 09:56:02;;;;;;;2.30;1.83;;;;;;;4.93;66.39;95833.00;1822758;79;21089;-68
2021/04/15 09:58:56;;;;;;;2.00;1.70;;;;;;;5.02;66.31;95842.22;1789752;80;21146;-68
2021/04/15 10:01:38;;;;;;;2.93;2.50;;;;;;;5.12;65.00;95838.80;1780399;80;21525;-68
2021/04/15 10:04:17;;;;;;;2.60;2.40;;;;;;;5.04;65.17;95837.88;1777144;80;21112;-68
2021/04/15 10:06:53;;;;;;;2.17;1.87;;;;;;;5.03;63.05;95830.02;1808790;79;21582;-68
2021/04/15 10:09:35;;;;;;;2.50;2.30;;;;;;;5.17;61.95;95830.55;1776937;81;21099;-68
2021/04/15 10:12:29;;;;;;;2.92;2.65;;;;;;;5.28;63.87;95820.14;1779968;81;21157;-68
2021/04/15 10:15:24;;;;;;;3.40;3.10;;;;;;;5.49;62.63;95815.44;1776178;81;21096;-69
2021/04/15 10:18:33;;;;;;;2.47;2.20;;;;;;;5.62;62.57;95817.70;1808100;79;21536;-68
2021/04/15 10:21:27;;;;;;;3.40;2.80;;;;;;;5.61;62.85;95808.95;1808095;79;21153;-68
2021/04/15 10:24:21;;;;;;;4.85;3.60;;;;;;;6.06;59.65;95803.45;1776941;81;21502;-68
2021/04/15 10:27:24;;;;;;;;;;;;;;;6.74;60.80;95802.66;1782546;81;21524;-68
2021/04/15 10:30:18;;;;;;;3.60;3.00;;;;;;;6.74;58.72;95796.97;1807888;79;20220;-69
2021/04/15 10:33:12;;;;;;;3.80;2.53;;;;;;;7.15;58.98;95790.34;1776038;80;21312;-68
2021/04/15 10:35:57;;;;;;;3.83;3.10;;;;;;;7.13;58.34;95802.61;1779804;81;21181;-69
2021/04/15 10:39:00;;;;;;;3.40;2.83;;;;;;;7.00;55.25;95794.75;1776481;80;21685;-69
2021/04/15 10:42:02;;;;;;;3.37;2.77;;;;;;;6.70;55.34;95790.86;1779874;81;21134;-69
2021/04/15 10:45:15;;;;;;;4.33;3.10;;;;;;;6.53;58.39;95792.61;1776295;81;21293;-68
2021/04/15 10:48:22;;;;;;;3.47;3.17;;;;;;;6.77;56.36;95790.84;1780098;81;21157;-68
2021/04/15 10:51:01;;;;;;;3.90;3.40;;;;;;;6.65;56.52;95793.02;1776210;80;21294;-68
2021/04/15 10:53:57;;;;;;;2.20;2.00;;;;;;;6.69;57.31;95790.41;1824314;77;22850;-69
2021/04/15 10:56:31;;;;;;;2.80;2.40;;;;;;;7.14;57.72;95782.48;1761006;81;21145;-68
2021/04/15 10:59:10;;;;;;;2.90;2.60;;;;;;;7.66;54.79;95778.39;1770978;81;21144;-68
2021/04/15 11:01:42;;;;;;;4.07;2.53;;;;;;;7.64;54.55;95780.14;1760855;81;21144;-69
2021/04/15 11:04:17;;;;;;;3.90;2.83;;;;;;;7.34;48.76;95783.75;1770565;81;21263;-69
2021/04/15 11:06:55;;;;;;;2.83;2.30;;;;;;;7.72;53.13;95782.29;1761177;81;21141;-68
2021/04/15 11:09:34;;;;;;;3.70;3.17;;;;;;;7.59;50.47;95781.47;1771196;81;21300;-69
2021/04/15 11:12:08;;;;;;;3.07;2.60;;;;;;;7.62;55.04;95781.89;1761041;81;21141;-69
2021/04/15 11:14:47;;;;;;;2.70;2.50;;;;;;;7.68;52.76;95779.67;1759458;81;21153;-69
2021/04/15 11:17:41;;;;;;;2.73;2.10;;;;;;;7.64;53.64;95782.77;1770623;81;21148;-69
2021/04/15 11:20:30;;;;;;;1.90;1.70;;;;;;;7.65;52.43;95780.56;1761187;81;21152;-69
2021/04/15 11:23:16;;;;;;;3.57;2.50;;;;;;;7.18;51.13;95786.83;1770931;81;21113;-69
2021/04/15 11:25:48;;;;;;;3.37;3.00;;;;;;;7.17;54.23;95783.78;1760846;81;21113;-69
2021/04/15 11:28:24;;;;;;;2.80;2.10;;;;;;;6.99;52.80;95787.77;1770672;81;21283;-69
2021/04/15 11:31:00;;;;;;;2.13;1.93;;;;;;;6.81;55.43;95796.53;1761056;81;21160;-68
2021/04/15 11:33:53;;;;;;;1.67;1.40;;;;;;;6.68;58.06;95804.41;1745210;82;21137;-69
2021/04/15 11:36:29;;;;;;;2.37;2.10;;;;;;;6.52;57.01;95804.39;1759382;81;21122;-68
2021/04/15 11:39:12;;;;;;;1.80;1.33;;;;;;;6.36;58.65;95804.83;1770725;81;21128;-69
2021/04/15 11:42:02;;;;;;;1.47;1.23;;;;;;;6.20;58.87;95800.87;1761091;81;21148;-69
2021/04/15 11:44:47;;;;;;;3.80;2.00;;;;;;;6.19;58.83;95800.86;1770700;81;21689;-69
2021/04/15 11:47:29;;;;;;;4.70;3.10;;;;;;;6.01;57.93;95803.88;1760715;81;21133;-69
2021/04/15 11:50:16;;;;;;;2.50;2.20;;;;;;;6.20;59.83;95798.26;1770776;81;21255;-69
2021/04/15 11:52:46;;;;;;;2.97;1.73;;;;;;;6.45;59.15;95797.84;1755366;81;21161;-69
2021/04/15 11:55:25;;;;;;;2.87;2.40;;;;;;;6.58;60.08;95786.92;1757156;82;21161;-68
2021/04/15 11:57:58;;;;;;;3.87;3.07;;;;;;;6.54;58.34;95789.55;1750309;82;21738;-69
2021/04/15 12:00:32;;;;;;;3.25;2.62;;;;;;;6.53;57.69;95796.55;1757365;82;21695;-69
2021/04/15 12:03:05;;;;;;;2.60;2.10;;;;;;;6.45;55.89;95796.54;1750496;82;21276;-69
2021/04/15 12:05:42;;;;;;;3.17;2.50;;;;;;;6.49;57.21;95790.41;1756804;82;21607;-69
2021/04/15 12:08:37;;;;;;;2.20;2.00;;;;;;;6.54;54.79;95787.79;1749656;82;21559;-69
2021/04/15 12:11:27;;;;;;;2.70;2.30;;;;;;;6.33;53.00;95796.97;1734257;83;21523;-69
2021/04/15 12:14:11;;;;;;;4.90;4.40;;;;;;;6.27;55.32;95790.84;1819136;78;21118;-69
2021/04/15 12:16:57;;;;;;;2.10;1.77;;;;;;;6.22;56.70;95792.59;1819130;78;21142;-69
2021/04/15 12:19:59;;;;;;;3.30;2.80;;;;;;;6.14;55.42;95794.74;1819240;78;21129;-69
2021/04/15 12:22:59;;;;;;;2.83;2.60;;;;;;;5.94;57.08;95789.45;1819154;79;21120;-68
2021/04/15 12:25:35;;;;;;;3.60;2.23;;;;;;;5.97;57.66;95788.15;1819599;79;21259;-68
2021/04/15 12:28:51;;;;;;;1.37;1.20;;;;;;;5.80;56.87;95788.96;1819106;79;21116;-69
2021/04/15 12:31:27;;;;;;;3.07;2.53;;;;;;;5.69;56.54;95790.66;1819457;78;21259;-69
2021/04/15 12:34:37;;;;;;;3.73;3.33;;;;;;;5.43;58.37;95795.36;1819389;79;21109;-69
2021/04/15 12:37:27;;;;;;;2.83;2.53;;;;;;;5.47;59.32;95790.12;1786761;79;21121;-69
2021/04/15 12:40:16;;;;;;;1.70;1.60;;;;;;;5.56;60.15;95793.66;1787628;79;21109;-68
2021/04/15 12:42:45;;;;;;;1.90;1.70;;;;;;;5.75;59.31;95795.06;1818942;79;21093;-69
2021/04/15 12:45:24;;;;;;;2.27;1.77;;;;;;;5.79;60.77;95790.25;1819280;79;21149;-69
2021/04/15 12:47:53;;;;;;;2.73;2.10;;;;;;;6.02;61.39;95786.00;1819179;79;21129;-69
2021/04/15 12:50:21;;;;;;;1.80;1.60;;;;;;;6.29;59.18;95781.22;1819374;79;21107;-69
2021/04/15 12:52:50;;;;;;;2.63;2.30;;;;;;;6.52;56.86;95780.36;1821751;79;21156;-69
2021/04/15 12:55:21;;;;;;;2.67;1.20;;;;;;;7.09;56.43;95768.51;1824929;79;21171;-69
2021/04/15 12:57:50;;;;;;;2.30;2.03;;;;;;;7.23;52.01;95771.98;1825139;79;21124;-69